Time;durP1;ratioP1;P1;durP2;ratioP2;P2;SDS_P1;SDS_P2;PMS_P1;PMS_P2;Temp;Humidity;BMP_temperature;BMP_pressure;BME280_temperature;BME280_humidity;BME280_pressure;Samples;Min_cycle;Max_cycle;Signal;HPM_P1;HPM_P2
2023/11/06 00:17:17;;;;;;;15.13;9.77;;;;;;;10.18;89.50;97751.69;6238828;22;20061;-91
2023/11/06 00:58:38;;;;;;;15.98;9.48;;;;;;;10.70;90.14;97760.88;6299554;22;20086;-93
2023/11/06 01:16:19;;;;;;;13.02;8.52;;;;;;;10.55;89.99;97708.59;6204715;23;20040;-90
2023/11/06 01:47:10;;;;;;;14.00;10.48;;;;;;;11.15;90.84;97727.59;6237956;23;20037;-91
2023/11/06 02:08:10;;;;;;;18.00;11.88;;;;;;;11.27;90.99;97737.66;6180735;23;20032;-91
2023/11/06 02:18:39;;;;;;;20.55;11.93;;;;;;;11.34;92.16;97746.00;6297990;22;20471;-91
2023/11/06 02:26:09;;;;;;;23.20;14.97;;;;;;;11.47;93.01;97741.22;6271206;22;20015;-89
2023/11/06 02:41:08;;;;;;;25.40;14.27;;;;;;;11.48;93.20;97740.84;6300462;22;20027;-92
2023/11/06 02:44:38;;;;;;;20.77;12.45;;;;;;;11.55;93.52;97736.69;6224886;22;20015;-93
2023/11/06 02:57:42;;;;;;;17.95;9.32;;;;;;;11.52;93.90;97752.69;6295537;22;20025;-93
2023/11/06 03:05:18;;;;;;;11.10;5.07;;;;;;;11.10;93.72;97729.81;6266023;22;20258;-93
2023/11/06 03:08:36;;;;;;;6.07;4.47;;;;;;;11.32;93.58;97759.22;6217647;23;20043;-92
2023/11/06 03:14:37;;;;;;;3.53;2.90;;;;;;;11.17;92.41;97765.53;6281625;22;20031;-92
2023/11/06 03:17:25;;;;;;;4.10;2.80;;;;;;;11.13;91.94;97756.47;6264062;22;20086;-93
2023/11/06 03:20:16;;;;;;;3.67;2.30;;;;;;;11.14;92.00;97774.44;6253586;22;20023;-91
2023/11/06 03:23:25;;;;;;;3.78;2.60;;;;;;;10.64;92.20;97713.09;6279024;22;20030;-92
2023/11/06 03:30:29;;;;;;;2.75;1.40;;;;;;;10.89;89.56;97793.75;6240454;23;20043;-91
2023/11/06 03:32:57;;;;;;;4.28;1.50;;;;;;;10.57;88.83;97774.59;6243498;23;20012;-90
2023/11/06 03:35:23;;;;;;;1.80;1.20;;;;;;;10.43;87.92;97763.31;6219172;23;20042;-91
2023/11/06 03:38:43;;;;;;;1.30;1.20;;;;;;;10.61;87.88;97787.56;6241169;23;20020;-91
2023/11/06 03:41:18;;;;;;;1.30;1.10;;;;;;;10.14;87.64;97731.69;6237619;23;20013;-95
2023/11/06 03:44:31;;;;;;;1.70;1.35;;;;;;;10.23;86.16;97772.47;6235082;23;20035;-92
2023/11/06 03:47:25;;;;;;;1.40;1.30;;;;;;;10.29;84.81;97801.16;6217251;23;20066;-92
2023/11/06 03:50:10;;;;;;;1.55;1.35;;;;;;;9.73;83.98;97746.50;6217518;23;20084;-90
2023/11/06 03:52:55;;;;;;;2.35;1.65;;;;;;;9.95;83.41;97789.66;6242953;22;20000;-91
2023/11/06 03:55:49;;;;;;;2.08;1.50;;;;;;;9.61;83.61;97745.41;6190855;23;20013;-90
2023/11/06 03:58:35;;;;;;;1.73;1.30;;;;;;;9.78;83.87;97762.63;6219031;23;20080;-90
2023/11/06 04:05:18;;;;;;;3.42;1.27;;;;;;;10.04;84.03;97825.00;6328291;22;20029;-92
2023/11/06 04:09:17;;;;;;;1.20;1.10;;;;;;;10.03;83.54;97821.47;6241676;22;20012;-92
2023/11/06 04:13:30;;;;;;;1.85;1.20;;;;;;;9.55;83.96;97756.91;6181331;23;20061;-92
2023/11/06 04:16:09;;;;;;;2.75;1.20;;;;;;;9.56;83.83;97748.34;6072509;23;20014;-91
2023/11/06 04:19:17;;;;;;;2.05;1.58;;;;;;;10.14;84.16;97821.00;6092465;23;20037;-90
2023/11/06 04:22:39;;;;;;;1.17;1.10;;;;;;;9.49;83.57;97739.16;6119345;23;20041;-90
2023/11/06 04:25:06;;;;;;;1.48;1.30;;;;;;;9.99;83.86;97814.31;6034087;23;20008;-92
2023/11/06 04:27:59;;;;;;;2.33;1.60;;;;;;;10.11;83.90;97838.84;6012606;23;20027;-92
2023/11/06 04:30:26;;;;;;;4.10;1.40;;;;;;;10.05;83.95;97838.28;6013687;23;20039;-92
2023/11/06 04:38:36;;;;;;;3.72;2.10;;;;;;;10.14;85.48;97848.28;6280409;22;20056;-90
2023/11/06 04:42:31;;;;;;;2.67;1.80;;;;;;;10.23;86.62;97846.19;6173717;23;20052;-91
2023/11/06 04:46:24;;;;;;;3.92;2.20;;;;;;;10.08;87.51;97834.09;6271212;22;20091;-90
2023/11/06 04:49:53;;;;;;;4.10;2.30;;;;;;;10.02;87.86;97849.09;6108931;23;20022;-91
2023/11/06 04:53:21;;;;;;;1.95;1.52;;;;;;;9.92;88.32;97850.38;6125293;23;20049;-92
2023/11/06 05:02:06;;;;;;;2.30;1.75;;;;;;;9.97;88.65;97863.81;6292287;22;20007;-92
2023/11/06 05:05:16;;;;;;;2.38;1.73;;;;;;;9.55;88.37;97774.03;6315145;22;20010;-91
2023/11/06 05:22:39;;;;;;;4.03;2.58;;;;;;;10.04;87.90;97831.25;6183690;23;20021;-91
2023/11/06 05:25:51;;;;;;;6.78;3.63;;;;;;;9.87;87.81;97804.22;6191911;23;20029;-89
2023/11/06 05:28:49;;;;;;;7.32;3.28;;;;;;;10.30;88.27;97862.84;6166772;23;20013;-90
2023/11/06 05:32:18;;;;;;;5.32;3.28;;;;;;;10.28;87.80;97854.97;6160496;23;20017;-92
2023/11/06 05:47:38;;;;;;;5.40;3.55;;;;;;;9.80;87.47;97763.88;6241012;23;20027;-91
2023/11/06 05:50:35;;;;;;;4.22;2.60;;;;;;;10.45;86.75;97855.81;6168368;23;20001;-92
2023/11/06 05:53:05;;;;;;;5.03;2.70;;;;;;;10.25;86.69;97835.72;6195412;23;20034;-92
2023/11/06 06:03:03;;;;;;;18.83;3.60;;;;;;;10.54;86.27;97856.47;6240923;23;20028;-90
2023/11/06 06:17:51;;;;;;;16.65;7.32;;;;;;;10.84;85.72;97853.38;6292600;22;20008;-90
2023/11/06 06:20:17;;;;;;;10.63;6.63;;;;;;;10.68;85.10;97815.09;6202739;22;20035;-91
2023/11/06 06:22:46;;;;;;;;;;;;;;;10.93;84.52;97857.53;6252865;22;20046;-91
2023/11/06 06:25:52;;;;;;;8.50;5.22;;;;;;;10.35;83.82;97764.25;6233931;22;19942;-91
2023/11/06 06:32:01;;;;;;;4.22;2.63;;;;;;;10.63;83.87;97821.59;6302810;22;20012;-90
2023/11/06 06:34:30;;;;;;;5.53;2.45;;;;;;;10.64;83.23;97823.19;6275808;22;20007;-89
2023/11/06 06:37:22;;;;;;;4.18;2.20;;;;;;;10.45;83.28;97779.34;6249885;22;20031;-88
2023/11/06 06:40:07;;;;;;;7.22;2.00;;;;;;;10.87;83.37;97852.69;6275302;22;20003;-91
2023/11/06 06:43:11;;;;;;;12.60;2.35;;;;;;;10.64;83.90;97792.34;6201091;22;20059;-89
2023/11/06 06:46:17;;;;;;;5.75;2.10;;;;;;;10.99;82.91;97850.66;6077393;23;20021;-90
2023/11/06 06:49:19;;;;;;;4.15;2.63;;;;;;;11.03;83.07;97837.09;6152769;23;20056;-90
2023/11/06 06:51:50;;;;;;;3.22;2.20;;;;;;;10.90;82.92;97809.03;6102206;23;20360;-91
2023/11/06 06:54:44;;;;;;;6.57;2.05;;;;;;;11.11;82.42;97838.06;6104289;23;20017;-90
2023/11/06 07:08:42;;;;;;;3.97;2.83;;;;;;;10.76;82.28;97779.41;6314398;22;20114;-89
2023/11/06 07:11:32;;;;;;;6.75;3.72;;;;;;;10.56;82.17;97748.44;6327954;22;20019;-90
2023/11/06 07:14:13;;;;;;;9.82;4.05;;;;;;;10.95;82.55;97807.97;6279531;22;20067;-90
2023/11/06 07:20:41;;;;;;;8.55;4.55;;;;;;;11.01;83.00;97845.63;6298070;22;20023;-90
2023/11/06 07:23:24;;;;;;;6.70;4.78;;;;;;;11.04;83.26;97839.47;6298845;22;20022;-88
2023/11/06 07:26:02;;;;;;;8.15;5.07;;;;;;;11.01;83.43;97831.94;6297107;22;20027;-88
2023/11/06 07:28:29;;;;;;;7.18;5.03;;;;;;;10.51;83.52;97772.47;6300931;22;20022;-89
2023/11/06 07:31:58;;;;;;;11.03;5.50;;;;;;;11.05;83.74;97841.03;6226752;22;20046;-88
2023/11/06 07:35:10;;;;;;;7.65;5.13;;;;;;;10.98;83.28;97827.19;6276429;22;20412;-87
2023/11/06 07:37:53;;;;;;;6.35;4.70;;;;;;;10.77;83.31;97796.59;6298891;22;20049;-87
2023/11/06 07:44:35;;;;;;;11.68;5.40;;;;;;;10.81;83.36;97794.72;6288507;22;20028;-89
2023/11/06 07:48:01;;;;;;;8.07;4.85;;;;;;;11.03;83.11;97817.94;6260820;22;20043;-91
2023/11/06 07:51:17;;;;;;;10.20;5.50;;;;;;;11.12;82.96;97825.97;6283005;22;20054;-90
2023/11/06 07:55:10;;;;;;;10.07;5.80;;;;;;;11.02;83.03;97811.66;6282262;22;20022;-91
2023/11/06 08:05:47;;;;;;;9.13;6.28;;;;;;;11.41;82.93;97854.81;6297875;22;20095;-91
2023/11/06 08:08:44;;;;;;;9.63;6.57;;;;;;;11.35;82.94;97848.81;6248130;22;20033;-91
2023/11/06 08:11:21;;;;;;;12.98;6.75;;;;;;;11.03;82.96;97796.88;6263137;22;20027;-89
2023/11/06 08:28:49;;;;;;;11.90;7.55;;;;;;;11.48;84.37;97833.88;6320440;22;20023;-91
2023/11/06 08:40:40;;;;;;;18.23;9.98;;;;;;;11.28;84.53;97758.38;6276213;22;20100;-90
2023/11/06 08:43:09;;;;;;;19.52;10.82;;;;;;;11.15;84.87;97730.31;6227219;22;20071;-90
2023/11/06 08:46:50;;;;;;;17.45;11.00;;;;;;;11.79;84.36;97807.63;6215928;22;20056;-93
2023/11/06 08:50:21;;;;;;;25.02;15.95;;;;;;;11.31;84.14;97727.56;6302882;22;20000;-92
2023/11/06 08:53:44;;;;;;;47.85;29.95;;;;;;;11.35;84.01;97708.50;6278153;22;20056;-92
2023/11/06 08:56:34;;;;;;;57.75;31.80;;;;;;;11.68;83.28;97741.66;6290023;22;20020;-93
2023/11/06 09:00:20;;;;;;;55.28;31.73;;;;;;;11.95;83.66;97785.66;6280553;22;20003;-91
2023/11/06 09:15:45;;;;;;;21.10;12.50;;;;;;;11.88;83.69;97771.81;6312275;22;20022;-91
2023/11/06 09:19:05;;;;;;;24.38;14.27;;;;;;;11.57;83.71;97726.19;6315232;22;20004;-90
2023/11/06 09:22:41;;;;;;;41.42;26.02;;;;;;;11.81;83.83;97736.06;6334090;22;20043;-90
2023/11/06 11:01:22;;;;;;;22.77;13.73;;;;;;;12.48;83.78;97648.13;6211807;23;20028;-91
2023/11/06 11:04:51;;;;;;;;;;;;;;;12.43;84.35;97630.03;6241649;22;20059;-89
2023/11/06 11:07:20;;;;;;;27.75;13.80;;;;;;;12.25;84.39;97605.09;6189520;23;20355;-89
2023/11/06 11:09:50;;;;;;;28.50;14.45;;;;;;;12.30;83.74;97593.03;6239068;23;20028;-91
2023/11/06 11:12:36;;;;;;;23.15;14.55;;;;;;;12.30;83.74;97599.31;6162301;23;20032;-90
2023/11/06 11:23:54;;;;;;;24.42;14.07;;;;;;;12.43;84.48;97627.31;6301152;22;20081;-91
2023/11/06 11:34:07;;;;;;;23.70;13.38;;;;;;;12.34;85.79;97611.09;6301628;22;20031;-91
2023/11/06 11:46:00;;;;;;;19.35;12.43;;;;;;;12.39;85.93;97610.03;6317544;22;20007;-90
2023/11/06 11:49:09;;;;;;;24.30;11.77;;;;;;;12.33;86.60;97593.09;6257396;22;20026;-90
2023/11/06 11:51:58;;;;;;;25.88;12.85;;;;;;;12.22;87.40;97575.69;6246407;22;20023;-90
2023/11/06 11:54:52;;;;;;;27.37;12.60;;;;;;;12.05;87.13;97548.78;6252079;22;20016;-91
2023/11/06 12:20:51;;;;;;;19.35;11.48;;;;;;;12.87;83.06;97561.78;6262027;22;20028;-91
2023/11/06 12:30:44;;;;;;;18.38;12.10;;;;;;;12.01;85.75;97490.44;6296707;22;20157;-91
2023/11/06 12:36:28;;;;;;;20.45;11.48;;;;;;;12.41;86.16;97564.63;6108918;23;20021;-92
2023/11/06 12:39:37;;;;;;;19.00;12.02;;;;;;;11.97;86.42;97504.06;6113122;23;20088;-92
2023/11/06 12:42:37;;;;;;;19.98;10.90;;;;;;;12.35;87.13;97548.88;6032781;23;20004;-93
2023/11/06 12:45:25;;;;;;;19.23;11.55;;;;;;;12.41;87.25;97563.84;6007147;23;20020;-91
2023/11/06 13:02:33;;;;;;;21.67;11.40;;;;;;;12.04;87.16;97500.66;6318319;22;20027;-90
2023/11/06 13:05:45;;;;;;;21.48;10.18;;;;;;;12.37;87.90;97565.75;6282990;22;20003;-89
2023/11/06 13:08:12;;;;;;;20.73;12.73;;;;;;;12.41;87.94;97556.41;6254328;22;20019;-90
2023/11/06 13:10:45;;;;;;;20.33;12.02;;;;;;;12.17;87.65;97523.94;6241850;22;20003;-92
2023/11/06 13:16:08;;;;;;;19.33;10.07;;;;;;;12.33;88.33;97538.28;6328302;22;20034;-90
2023/11/06 13:18:44;;;;;;;22.48;10.25;;;;;;;12.31;88.49;97550.78;6304443;22;20034;-94
2023/11/06 13:21:30;;;;;;;20.13;9.35;;;;;;;12.14;89.13;97517.25;6334517;22;20003;-92
2023/11/06 13:24:47;;;;;;;15.38;9.13;;;;;;;11.87;89.20;97485.53;6285885;22;20025;-90
2023/11/06 13:27:26;;;;;;;13.55;8.38;;;;;;;12.17;89.14;97524.75;6281380;22;20035;-91
2023/11/06 13:29:53;;;;;;;18.13;9.85;;;;;;;11.82;89.46;97461.97;6273303;22;20052;-90
2023/11/06 13:32:59;;;;;;;14.02;9.25;;;;;;;11.95;89.88;97506.38;6276758;22;20014;-90
2023/11/06 13:35:30;;;;;;;16.23;9.43;;;;;;;12.07;90.43;97519.09;6252163;22;20026;-92
2023/11/06 13:38:00;;;;;;;16.08;9.88;;;;;;;12.24;90.17;97545.97;6304400;22;20451;-91
2023/11/06 13:40:43;;;;;;;;;;;;;;;12.31;90.34;97540.59;6278474;22;20015;-89
2023/11/06 13:43:50;;;;;;;14.18;8.90;;;;;;;12.36;90.07;97542.25;6163431;23;19935;-91
2023/11/06 13:46:17;;;;;;;14.60;8.32;;;;;;;11.98;89.92;97478.25;6154652;23;20001;-91
2023/11/06 13:48:47;;;;;;;17.60;8.48;;;;;;;12.37;90.01;97524.66;6155552;23;20043;-89
2023/11/06 13:57:07;;;;;;;10.85;7.82;;;;;;;11.89;90.25;97464.84;6299466;22;20007;-92
2023/11/06 14:05:20;;;;;;;16.52;8.48;;;;;;;11.92;90.29;97463.28;6332818;22;20071;-91
2023/11/06 14:08:32;;;;;;;13.80;8.70;;;;;;;12.09;90.26;97479.25;6334660;22;20019;-92
2023/11/06 14:20:07;;;;;;;15.10;7.22;;;;;;;12.25;90.03;97522.91;6270194;22;20083;-91
2023/11/06 14:26:08;;;;;;;18.98;10.63;;;;;;;12.41;90.83;97545.44;6247382;22;20023;-91
2023/11/06 14:28:52;;;;;;;23.20;12.73;;;;;;;12.21;90.93;97511.09;6233015;22;20046;-88
2023/11/06 14:47:15;;;;;;;34.22;18.05;;;;;;;12.37;91.18;97544.63;6335010;22;20015;-90
2023/11/06 14:50:16;;;;;;;25.98;14.77;;;;;;;12.42;91.00;97560.75;6289454;22;20070;-91
2023/11/06 14:53:30;;;;;;;33.97;13.50;;;;;;;12.16;90.81;97505.94;6289241;22;20077;-91
2023/11/06 14:56:16;;;;;;;35.47;13.55;;;;;;;12.15;90.77;97509.81;6306545;22;19995;-92
2023/11/06 15:12:51;;;;;;;17.05;11.77;;;;;;;12.33;90.82;97552.00;6287198;22;20023;-90
2023/11/06 15:15:21;;;;;;;22.55;10.90;;;;;;;12.32;90.84;97550.41;6243857;22;20022;-90
2023/11/06 15:18:15;;;;;;;15.52;10.60;;;;;;;12.54;91.31;97567.97;6249892;22;20019;-91
2023/11/06 15:21:08;;;;;;;18.70;12.05;;;;;;;12.48;91.11;97543.97;6204402;22;20007;-91
2023/11/06 15:28:32;;;;;;;23.83;14.57;;;;;;;12.28;90.07;97535.06;6302420;22;19919;-92
2023/11/06 15:55:01;;;;;;;17.50;12.60;;;;;;;12.28;89.77;97557.00;6298718;22;20012;-89
2023/11/06 16:03:36;;;;;;;24.10;16.88;;;;;;;12.42;89.44;97582.69;6302750;22;20007;-91
2023/11/06 16:15:56;;;;;;;14.90;10.13;;;;;;;12.42;87.96;97582.69;6268634;22;20020;-90
2023/11/06 16:18:51;;;;;;;14.18;9.10;;;;;;;12.41;88.39;97588.50;6219691;23;20019;-90
2023/11/06 16:21:57;;;;;;;15.38;8.98;;;;;;;12.06;87.44;97532.00;6199681;23;20016;-91
2023/11/06 16:24:24;;;;;;;13.57;8.60;;;;;;;11.80;87.17;97499.84;6218789;23;20042;-89
2023/11/06 16:30:38;;;;;;;48.42;20.35;;;;;;;12.55;88.20;97593.41;6302736;22;20027;-90
2023/11/06 16:33:24;;;;;;;38.90;15.18;;;;;;;12.85;85.85;97590.75;6321546;22;20084;-92
2023/11/06 16:36:17;;;;;;;13.18;6.57;;;;;;;13.02;83.98;97589.44;6253605;22;20089;-88
2023/11/06 16:39:20;;;;;;;14.27;7.57;;;;;;;12.65;83.20;97581.84;6305957;22;20019;-92
2023/11/06 16:42:36;;;;;;;7.65;5.13;;;;;;;12.61;83.92;97600.16;6251689;22;19995;-89
2023/11/06 16:49:32;;;;;;;15.63;7.32;;;;;;;12.34;84.55;97604.84;6311020;22;20027;-89
2023/11/06 16:52:44;;;;;;;15.23;7.18;;;;;;;12.21;84.17;97615.19;6332212;22;20019;-87
2023/11/06 16:55:10;;;;;;;7.63;5.50;;;;;;;12.13;84.54;97613.50;6252711;22;20023;-89
2023/11/06 16:58:07;;;;;;;9.80;5.45;;;;;;;11.60;84.72;97531.97;6268960;22;20023;-88
2023/11/06 17:01:03;;;;;;;7.57;5.10;;;;;;;12.12;84.26;97620.91;6250947;22;20024;-88
2023/11/06 17:03:35;;;;;;;8.55;4.72;;;;;;;12.14;84.25;97620.53;6275668;22;20035;-90
2023/11/06 17:06:45;;;;;;;5.85;4.47;;;;;;;12.11;84.03;97622.06;6246926;22;20003;-87
2023/11/06 17:09:37;;;;;;;6.03;4.50;;;;;;;11.86;83.67;97596.19;6277718;22;20023;-91
2023/11/06 17:12:25;;;;;;;5.53;4.18;;;;;;;11.86;84.22;97604.41;6268619;22;20015;-90
2023/11/06 18:30:05;;;;;;;9.20;4.50;;;;;;;10.89;82.51;97632.47;6305594;22;20114;-89
2023/11/06 18:32:36;;;;;;;6.00;3.78;;;;;;;11.34;82.30;97682.31;6303596;22;20012;-88
2023/11/06 19:18:08;;;;;;;5.55;3.20;;;;;;;11.09;80.61;97695.41;6306282;22;20034;-87
2023/11/06 19:32:40;;;;;;;8.60;2.80;;;;;;;10.89;81.14;97714.47;6304119;22;20026;-89
2023/11/06 19:38:29;;;;;;;4.97;2.50;;;;;;;10.70;80.56;97698.81;6211184;23;20028;-88
2023/11/06 19:48:42;;;;;;;4.13;2.58;;;;;;;10.60;80.76;97704.03;6272993;22;20030;-90
2023/11/06 19:51:11;;;;;;;2.78;2.10;;;;;;;10.86;80.82;97753.47;6220103;22;20023;-89
2023/11/06 19:59:39;;;;;;;4.32;2.20;;;;;;;10.55;80.10;97724.97;6294851;22;20047;-89
2023/11/06 20:02:06;;;;;;;5.07;2.30;;;;;;;10.69;80.22;97745.59;6274810;22;20023;-89
2023/11/06 20:05:24;;;;;;;3.83;2.35;;;;;;;10.85;80.17;97779.22;6301201;22;20052;-90
2023/11/06 20:08:16;;;;;;;3.92;2.22;;;;;;;10.65;80.17;97750.19;6306175;22;19996;-91
2023/11/06 20:10:47;;;;;;;4.05;2.40;;;;;;;10.71;79.93;97768.72;6253839;22;20014;-89
2023/11/06 20:13:15;;;;;;;3.03;2.25;;;;;;;10.34;80.12;97716.25;6272275;22;20015;-90
2023/11/06 20:16:17;;;;;;;2.92;2.05;;;;;;;10.82;80.22;97788.91;6277167;22;20004;-89
2023/11/06 20:18:48;;;;;;;5.82;2.20;;;;;;;10.39;79.38;97726.91;6148733;23;20393;-91
